Espanola, Washington
Current Conditions -  °F | °C
As of 4:58 AM on Thursday 23 Oct 2014 (Local Time) from KSKA Reporting Station
Overcast Overcast  
Wind Chill: 11°   Ceiling: 10000
Heat Index: 11°   Visibility: 10mi
Dew Point:   Wind: 9mph
Humidity: 88%   Direction: 170°S
Pressure: 29.78"   Gusts: NA
Location:  47.6094°N, 117.705°W
Report Text: KSKA 231158Z AUTO 17008KT 10SM OVC100 11/09 A2978 RMK AO2 SLP088 60002 70029 T01090090 10111 20103 50005
Loading
Personal Weather Stations






























Interactive Weather Map
Tropical Storm Tracking
New forecast layout! Learn more

10-Day Weather Forecast

Advertisements
Track Severe Weather on mobile